createdAt,value
2023-04-18T00:04:09.073Z,7.24
2023-04-18T00:10:38.708Z,7.14
2023-04-18T00:16:48.166Z,7.17
2023-04-18T00:30:09.046Z,6.32
2023-04-18T00:37:04.574Z,6.98
2023-04-18T00:43:21.289Z,6.72
2023-04-18T01:02:24.276Z,5.07
2023-04-18T01:08:56.329Z,6.24
2023-04-18T01:15:12.195Z,6.74
2023-04-18T01:21:19.713Z,6.82
2023-04-18T01:34:28.065Z,6.19
2023-04-18T01:40:34.663Z,5.08
2023-04-18T01:46:49.004Z,6.54
2023-04-18T01:53:13.339Z,6.58
2023-04-18T01:59:37.126Z,5.04
2023-04-18T02:06:08.169Z,6.62
2023-04-18T02:12:11.203Z,5.42
2023-04-18T02:24:59.295Z,6.86
2023-04-18T02:37:29.395Z,6.85
2023-04-18T02:44:00.936Z,6.81
2023-04-18T02:50:15.909Z,6.22
2023-04-18T03:03:54.314Z,5.89
2023-04-18T03:10:08.244Z,6.44
2023-04-18T03:16:36.243Z,6.24
2023-04-18T03:22:55.950Z,5.82
2023-04-18T03:29:01.915Z,6.38
2023-04-18T03:35:32.809Z,6.35
2023-04-18T03:41:57.053Z,4.77
2023-04-18T03:48:26.723Z,6.30
2023-04-18T03:54:39.288Z,6.31
2023-04-18T04:00:57.824Z,5.28
2023-04-18T04:07:13.195Z,5.04
2023-04-18T04:56:34.359Z,6.73
2023-04-18T05:02:32.832Z,6.94
2023-04-18T05:15:21.805Z,6.91
2023-04-18T05:22:34.775Z,7.11
2023-04-18T05:34:46.371Z,7.18
2023-04-18T05:41:17.217Z,7.22
2023-04-18T05:47:53.660Z,7.26
2023-04-18T05:54:18.454Z,7.33
2023-04-18T06:00:34.505Z,7.25
2023-04-18T06:07:24.496Z,5.87
2023-04-18T06:13:37.138Z,7.33
2023-04-18T06:20:00.505Z,7.41
2023-04-18T06:26:30.536Z,7.46
2023-04-18T06:32:46.823Z,7.00
2023-04-18T06:39:02.286Z,7.52
2023-04-18T06:45:22.886Z,6.75
2023-04-18T06:58:01.800Z,8.13
2023-04-18T07:04:21.300Z,8.06
2023-04-18T07:10:48.739Z,8.46
2023-04-18T07:17:14.894Z,8.66
2023-04-18T07:23:35.228Z,8.58
2023-04-18T07:29:44.979Z,8.59
2023-04-18T07:36:02.472Z,9.00
2023-04-18T07:42:22.244Z,9.11
2023-04-18T07:49:15.623Z,8.90
2023-04-18T08:01:56.890Z,9.11
2023-04-18T08:09:16.917Z,8.34
2023-04-18T08:15:44.943Z,8.57
2023-04-18T08:21:58.433Z,9.74
2023-04-18T08:28:06.811Z,10.04
2023-04-18T08:34:20.673Z,9.83
2023-04-18T08:40:35.390Z,9.56
2023-04-18T08:47:28.791Z,10.31
2023-04-18T09:00:11.576Z,10.08
2023-04-18T09:06:21.194Z,10.00
2023-04-18T09:12:54.217Z,9.73
2023-04-18T09:26:04.689Z,9.92
2023-04-18T09:32:34.602Z,10.46
2023-04-18T09:38:47.310Z,10.46
2023-04-18T09:45:24.901Z,10.43
2023-04-18T09:51:56.465Z,10.33
2023-04-18T09:58:25.186Z,10.50
2023-04-18T10:05:21.319Z,10.41
2023-04-18T10:11:29.067Z,10.43
2023-04-18T10:18:03.548Z,10.33
2023-04-18T10:24:14.348Z,10.28
2023-04-18T10:30:57.655Z,10.11
2023-04-18T10:44:49.809Z,9.50
2023-04-18T10:51:26.726Z,10.22
2023-04-18T10:57:58.651Z,10.00
2023-04-18T11:04:44.886Z,9.44
2023-04-18T11:44:59.172Z,8.79
2023-04-18T11:51:45.616Z,8.43
2023-04-18T11:58:06.510Z,9.61
2023-04-18T12:05:09.035Z,9.18
2023-04-18T12:10:51.640Z,9.53
2023-04-18T12:17:37.929Z,8.90
2023-04-18T12:24:14.676Z,9.71
2023-04-18T12:30:38.120Z,8.99
2023-04-18T14:00:54.519Z,9.47
2023-04-18T14:14:50.104Z,7.80
2023-04-18T15:14:56.350Z,9.10
2023-04-18T15:29:00.595Z,8.54
2023-04-18T16:09:34.072Z,7.74
2023-04-18T16:29:28.122Z,8.65
2023-04-18T17:50:08.866Z,8.98
2023-04-18T17:57:15.190Z,9.06
2023-04-18T18:25:38.043Z,8.81
2023-04-18T18:38:02.752Z,7.40
2023-04-18T18:44:43.739Z,8.28
2023-04-18T18:57:11.496Z,8.65
2023-04-18T19:17:50.756Z,6.98
2023-04-18T19:24:19.529Z,8.58
2023-04-18T19:43:52.797Z,7.05
2023-04-18T19:56:19.629Z,7.38
2023-04-18T20:23:33.823Z,8.52
2023-04-18T20:44:22.422Z,7.03
2023-04-18T21:17:31.144Z,8.55
2023-04-18T21:23:54.696Z,7.53
2023-04-18T21:36:22.620Z,8.61
2023-04-18T21:42:52.902Z,7.79
2023-04-18T21:49:26.622Z,7.91
2023-04-18T21:55:50.406Z,7.99
2023-04-18T22:01:55.560Z,7.98
2023-04-18T22:27:47.779Z,7.97
2023-04-18T22:34:02.284Z,7.02
2023-04-18T22:40:27.865Z,6.93
2023-04-18T22:46:41.915Z,8.47
2023-04-18T22:52:52.459Z,6.99
2023-04-18T22:59:21.942Z,8.46
2023-04-18T23:05:36.206Z,7.48
2023-04-18T23:11:42.305Z,7.37
2023-04-18T23:18:24.266Z,8.45
2023-04-18T23:52:17.518Z,6.91
